createdAt,value
2019-04-06T00:00:09.333Z,39.38
2019-04-06T00:02:40.302Z,42.57
2019-04-06T00:05:09.247Z,41.90
2019-04-06T00:07:38.178Z,42.30
2019-04-06T00:10:07.116Z,42.17
2019-04-06T00:12:36.036Z,43.55
2019-04-06T00:15:07.226Z,42.80
2019-04-06T00:17:36.141Z,41.45
2019-04-06T00:20:06.455Z,43.83
2019-04-06T00:22:35.747Z,42.38
2019-04-06T00:25:06.231Z,42.78
2019-04-06T00:27:35.161Z,41.68
2019-04-06T00:30:07.453Z,43.85
2019-04-06T00:32:38.328Z,43.40
2019-04-06T00:35:07.575Z,43.13
2019-04-06T00:37:36.508Z,43.78
2019-04-06T00:40:06.387Z,44.65
2019-04-06T00:42:35.343Z,43.85
2019-04-06T00:45:05.646Z,44.58
2019-04-06T00:47:34.643Z,43.30
2019-04-06T00:50:05.119Z,44.58
2019-04-06T00:52:34.427Z,43.65
2019-04-06T00:55:04.050Z,44.70
2019-04-06T00:57:32.973Z,43.63
2019-04-06T01:00:02.232Z,45.15
2019-04-06T01:02:31.160Z,44.83
2019-04-06T01:05:00.124Z,43.87
2019-04-06T01:07:29.448Z,45.20
2019-04-06T01:09:58.380Z,43.73
2019-04-06T01:12:27.303Z,46.37
2019-04-06T01:14:56.269Z,46.13
2019-04-06T01:17:25.197Z,44.27
2019-04-06T01:19:54.495Z,45.23
2019-04-06T01:22:23.435Z,44.35
2019-04-06T01:24:52.361Z,45.17
2019-04-06T01:27:21.322Z,44.85
2019-04-06T01:29:50.268Z,44.93
2019-04-06T01:32:19.234Z,45.75
2019-04-06T01:34:48.154Z,44.38
2019-04-06T01:37:17.455Z,46.02
2019-04-06T01:39:46.384Z,45.38
2019-04-06T01:42:15.645Z,45.52
2019-04-06T01:44:44.581Z,45.17
2019-04-06T01:47:13.591Z,45.70
2019-04-06T01:49:42.855Z,45.63
2019-04-06T01:52:11.778Z,45.78
2019-04-06T01:54:40.734Z,46.45
2019-04-06T01:57:10.035Z,46.70
2019-04-06T01:59:38.980Z,45.20
2019-04-06T02:02:21.717Z,46.98
2019-04-06T02:04:50.686Z,46.65
2019-04-06T02:07:19.619Z,46.85
2019-04-06T02:09:49.019Z,45.83
2019-04-06T02:12:18.261Z,46.80
2019-04-06T02:14:47.184Z,45.83
2019-04-06T02:17:16.103Z,46.45
2019-04-06T02:19:45.029Z,46.08
2019-04-06T02:22:13.971Z,48.20
2019-04-06T02:24:42.872Z,46.35
2019-04-06T02:27:11.801Z,48.13
2019-04-06T02:29:40.708Z,47.25
2019-04-06T02:32:27.506Z,47.10
2019-04-06T02:35:00.859Z,46.42
2019-04-06T02:37:31.405Z,48.87
2019-04-06T02:40:07.744Z,47.65
2019-04-06T02:42:49.040Z,47.80
2019-04-06T02:45:17.995Z,47.53
2019-04-06T02:47:46.892Z,45.48
2019-04-06T02:50:15.828Z,47.35
2019-04-06T02:52:44.749Z,46.30
2019-04-06T02:55:13.857Z,47.33
2019-04-06T02:57:43.204Z,47.53
2019-04-06T03:00:12.138Z,48.73
2019-04-06T03:02:41.044Z,46.25
2019-04-06T03:05:09.945Z,46.30
2019-04-06T03:07:38.945Z,47.17
2019-04-06T03:10:08.134Z,46.20
2019-04-06T03:12:37.265Z,46.45
2019-04-06T03:15:06.173Z,47.15
2019-04-06T03:17:35.111Z,47.78
2019-04-06T03:20:05.869Z,46.48
2019-04-06T03:22:34.778Z,48.50
2019-04-06T03:25:05.743Z,47.08
2019-04-06T03:27:34.663Z,47.08
2019-04-06T03:30:06.209Z,46.85
2019-04-06T03:32:35.117Z,47.13
2019-04-06T03:35:04.384Z,48.30
2019-04-06T03:37:33.748Z,48.02
2019-04-06T03:40:02.897Z,47.93
2019-04-06T03:42:32.201Z,50.55
2019-04-06T03:45:01.128Z,47.53
2019-04-06T03:47:30.455Z,46.88
2019-04-06T03:49:59.258Z,47.48
2019-04-06T03:52:28.163Z,50.00
2019-04-06T03:54:57.287Z,48.73
2019-04-06T03:57:26.351Z,45.88
2019-04-06T03:59:55.191Z,47.30
2019-04-06T04:02:24.057Z,48.48
2019-04-06T04:04:53.191Z,47.27
2019-04-06T04:07:21.997Z,47.70
2019-04-06T04:09:50.770Z,49.15
2019-04-06T04:12:19.631Z,47.80
2019-04-06T04:14:48.440Z,47.88
2019-04-06T04:17:17.227Z,47.55
2019-04-06T04:19:46.028Z,48.02
2019-04-06T04:22:14.891Z,47.45
2019-04-06T04:24:43.786Z,45.48
2019-04-06T04:27:12.662Z,47.90
2019-04-06T04:29:41.599Z,46.48
2019-04-06T04:32:10.462Z,45.80
2019-04-06T04:34:39.608Z,47.08
2019-04-06T04:37:08.463Z,46.95
2019-04-06T04:39:37.237Z,45.90
2019-04-06T04:42:06.054Z,47.00
2019-04-06T04:44:35.264Z,48.20
2019-04-06T04:47:04.070Z,47.78
2019-04-06T04:49:33.249Z,47.08
2019-04-06T04:52:02.063Z,45.83
2019-04-06T04:54:30.918Z,47.15
2019-04-06T04:57:00.243Z,46.53
2019-04-06T04:59:29.026Z,46.23
2019-04-06T05:01:57.812Z,45.67
2019-04-06T05:04:26.612Z,46.13
2019-04-06T05:06:55.404Z,45.60
2019-04-06T05:09:24.265Z,47.23
2019-04-06T05:11:53.047Z,47.40
2019-04-06T05:14:53.874Z,46.53
2019-04-06T05:17:22.654Z,47.67
2019-04-06T05:19:51.524Z,45.70
2019-04-06T05:22:20.374Z,46.25
2019-04-06T05:24:49.167Z,44.80
2019-04-06T05:27:18.019Z,44.48
2019-04-06T05:29:46.831Z,44.90
2019-04-06T05:32:15.624Z,46.33
2019-04-06T05:34:44.396Z,46.75
2019-04-06T05:37:13.185Z,45.23
2019-04-06T05:39:42.342Z,45.45
2019-04-06T05:42:11.137Z,44.60
2019-04-06T05:44:39.988Z,44.77
2019-04-06T05:47:08.854Z,45.30
2019-04-06T05:49:38.005Z,43.30
2019-04-06T05:52:06.797Z,45.17
2019-04-06T05:54:35.575Z,43.65
2019-04-06T05:57:04.668Z,45.20
2019-04-06T05:59:33.522Z,43.08
2019-04-06T06:02:02.387Z,44.60
2019-04-06T06:04:31.261Z,43.70
2019-04-06T06:07:00.110Z,45.23
2019-04-06T06:09:28.966Z,43.10
2019-04-06T06:11:57.765Z,43.83
2019-04-06T06:14:26.641Z,43.63
2019-04-06T06:16:55.412Z,43.20
2019-04-06T06:19:24.211Z,46.23
2019-04-06T06:21:52.991Z,45.17
2019-04-06T06:24:21.778Z,43.08
2019-04-06T06:26:50.882Z,43.58
2019-04-06T06:29:19.662Z,42.43
2019-04-06T06:31:48.864Z,45.50
2019-04-06T06:34:17.656Z,45.12
2019-04-06T06:36:46.520Z,45.73
2019-04-06T06:39:15.297Z,45.40
2019-04-06T06:41:44.307Z,45.67
2019-04-06T06:44:13.267Z,44.15
2019-04-06T06:46:42.293Z,44.77
2019-04-06T06:49:11.291Z,43.78
2019-04-06T06:51:40.065Z,42.67
2019-04-06T06:54:08.861Z,43.05
2019-04-06T06:56:37.672Z,42.70
2019-04-06T06:59:06.518Z,42.30
2019-04-06T07:01:35.358Z,43.15
2019-04-06T07:04:04.151Z,43.75
2019-04-06T07:06:33.255Z,44.42
2019-04-06T07:09:02.058Z,42.05
2019-04-06T07:11:30.940Z,42.38
2019-04-06T07:13:59.749Z,43.48
2019-04-06T07:16:28.595Z,39.92
2019-04-06T07:18:57.383Z,40.23
2019-04-06T07:21:26.175Z,39.45
2019-04-06T07:23:55.089Z,40.50
2019-04-06T07:26:23.935Z,39.80
2019-04-06T07:28:52.710Z,39.48
2019-04-06T07:31:21.512Z,37.38
2019-04-06T07:33:50.301Z,40.25
2019-04-06T07:36:19.090Z,37.15
2019-04-06T07:38:47.887Z,37.53
2019-04-06T07:41:16.671Z,38.00
2019-04-06T07:43:45.838Z,36.13
2019-04-06T07:46:15.014Z,36.60
2019-04-06T07:48:44.317Z,37.50
2019-04-06T07:51:13.381Z,37.77
2019-04-06T07:53:43.908Z,36.70
2019-04-06T07:56:12.768Z,37.55
2019-04-06T07:58:48.877Z,36.48
2019-04-06T08:01:12.112Z,37.23
2019-04-06T08:03:40.899Z,36.23
2019-04-06T08:06:09.684Z,35.60
2019-04-06T08:08:38.468Z,35.28
2019-04-06T08:11:07.285Z,34.70
2019-04-06T08:13:36.129Z,34.43
2019-04-06T08:16:05.122Z,34.60
2019-04-06T08:18:34.678Z,34.40
2019-04-06T08:21:03.806Z,34.13
2019-04-06T08:23:32.591Z,32.63
2019-04-06T08:26:01.388Z,31.80
2019-04-06T08:28:30.360Z,32.73
2019-04-06T08:30:59.422Z,31.15
2019-04-06T08:33:28.220Z,31.25
2019-04-06T08:35:57.160Z,29.57
2019-04-06T08:38:26.113Z,30.17
2019-04-06T08:40:54.908Z,29.37
2019-04-06T08:43:24.371Z,28.77
2019-04-06T08:45:53.200Z,28.90
2019-04-06T08:48:22.023Z,28.52
2019-04-06T08:50:50.784Z,27.65
2019-04-06T08:53:19.580Z,25.05
2019-04-06T08:55:48.457Z,26.70
2019-04-06T08:58:17.248Z,26.35
2019-04-06T09:00:46.179Z,26.87
2019-04-06T09:03:14.963Z,25.50
2019-04-06T09:05:43.756Z,25.10
2019-04-06T09:08:12.539Z,24.65
2019-04-06T09:10:41.547Z,24.77
2019-04-06T09:13:10.715Z,26.25
2019-04-06T09:15:39.786Z,22.98
2019-04-06T09:18:08.568Z,22.37
2019-04-06T09:20:37.631Z,22.93
2019-04-06T09:23:06.424Z,23.73
2019-04-06T09:25:35.213Z,23.52
2019-04-06T09:28:04.004Z,22.55
2019-04-06T09:30:32.786Z,22.22
2019-04-06T09:33:01.606Z,21.77
2019-04-06T09:35:30.690Z,21.82
2019-04-06T09:37:59.807Z,22.25
2019-04-06T09:40:28.973Z,23.00
2019-04-06T09:42:58.083Z,23.70
2019-04-06T09:45:28.525Z,24.23
2019-04-06T09:47:58.927Z,23.80
2019-04-06T09:50:35.932Z,21.30
2019-04-06T09:53:24.718Z,21.37
2019-04-06T09:56:10.209Z,21.73
2019-04-06T09:58:41.022Z,21.00
2019-04-06T10:01:18.106Z,20.95
2019-04-06T10:03:48.797Z,20.12
2019-04-06T10:06:32.471Z,16.50
2019-04-06T10:09:11.965Z,16.80
2019-04-06T10:11:57.233Z,16.40
2019-04-06T10:14:27.728Z,18.42
2019-04-06T10:16:58.286Z,19.40
2019-04-06T10:19:47.006Z,18.95
2019-04-06T10:22:33.061Z,19.65
2019-04-06T10:25:03.590Z,18.25
2019-04-06T10:27:45.820Z,18.10
2019-04-06T10:30:32.103Z,16.27
2019-04-06T10:33:18.634Z,18.90
2019-04-06T10:35:52.641Z,18.42
2019-04-06T10:38:39.764Z,18.55
2019-04-06T10:41:10.307Z,17.82
2019-04-06T10:43:46.782Z,17.85
2019-04-06T10:46:29.295Z,19.00
2019-04-06T10:48:59.980Z,18.27
2019-04-06T10:51:36.644Z,17.82
2019-04-06T10:54:13.117Z,15.50
2019-04-06T10:56:49.643Z,15.68
2019-04-06T10:59:29.018Z,15.58
2019-04-06T11:02:08.601Z,16.67
2019-04-06T11:04:44.751Z,17.85
2019-04-06T11:07:33.618Z,11.55
2019-04-06T11:10:09.792Z,10.60
2019-04-06T11:12:43.277Z,11.38
2019-04-06T11:15:29.388Z,11.35
2019-04-06T11:18:16.285Z,11.55
2019-04-06T11:20:49.488Z,10.43
2019-04-06T11:23:36.353Z,11.97
2019-04-06T11:26:09.982Z,12.70
2019-04-06T11:28:46.453Z,11.55
2019-04-06T11:31:25.893Z,12.00
2019-04-06T11:33:58.984Z,13.22
2019-04-06T11:36:32.331Z,12.33
2019-04-06T11:39:17.839Z,12.47
2019-04-06T11:41:50.890Z,13.13
2019-04-06T11:44:21.310Z,13.30
2019-04-06T11:46:54.965Z,12.45
2019-04-06T11:49:26.220Z,11.70
2019-04-06T11:52:03.076Z,11.22
2019-04-06T11:54:49.686Z,11.22
2019-04-06T11:57:20.131Z,11.93
2019-04-06T11:59:56.298Z,11.80
2019-04-06T12:02:26.733Z,12.00
2019-04-06T12:05:03.038Z,12.93
2019-04-06T12:07:48.924Z,12.70
2019-04-06T12:10:25.553Z,13.72
2019-04-06T12:12:58.970Z,12.68
2019-04-06T12:15:32.304Z,13.03
2019-04-06T12:20:55.096Z,12.37
2019-04-06T12:23:33.216Z,12.58
2019-04-06T12:26:19.451Z,14.25
2019-04-06T12:29:06.898Z,12.82
2019-04-06T12:31:55.150Z,12.45
2019-04-06T12:34:43.677Z,13.20
2019-04-06T12:37:30.818Z,11.70
2019-04-06T12:40:04.379Z,13.32
2019-04-06T12:42:40.991Z,14.98
2019-04-06T12:45:14.142Z,14.83
2019-04-06T12:47:50.808Z,13.95
2019-04-06T12:50:33.386Z,14.53
2019-04-06T12:53:03.879Z,13.28
2019-04-06T12:55:34.514Z,12.93
2019-04-06T12:58:05.335Z,13.28
2019-04-06T13:00:52.709Z,12.95
2019-04-06T13:03:35.696Z,12.75
2019-04-06T13:06:06.156Z,12.70
2019-04-06T13:08:48.822Z,12.80
2019-04-06T13:11:25.326Z,12.27
2019-04-06T13:13:58.737Z,11.33
2019-04-06T13:16:35.269Z,11.95
2019-04-06T13:19:05.753Z,12.43
2019-04-06T13:21:51.654Z,12.47
2019-04-06T13:24:37.109Z,12.68
2019-04-06T13:27:07.567Z,12.90
2019-04-06T13:29:37.990Z,12.20
2019-04-06T13:32:14.345Z,12.73
2019-04-06T13:34:44.850Z,12.78
2019-04-06T13:37:24.743Z,13.32
2019-04-06T13:40:07.260Z,13.45
2019-04-06T13:42:40.346Z,13.35
2019-04-06T13:45:11.275Z,13.30
2019-04-06T13:47:50.768Z,13.58
2019-04-06T13:50:21.195Z,12.82
2019-04-06T13:52:51.605Z,12.95
2019-04-06T13:55:30.876Z,13.05
2019-04-06T13:58:01.666Z,13.05
2019-04-06T14:00:41.264Z,12.70
2019-04-06T14:03:20.424Z,13.20
2019-04-06T14:06:06.756Z,11.43
2019-04-06T14:08:49.338Z,11.90
2019-04-06T14:11:35.931Z,11.97
2019-04-06T14:14:12.589Z,12.37
2019-04-06T14:16:45.963Z,12.45
2019-04-06T14:19:28.671Z,13.70
2019-04-06T14:22:01.988Z,13.08
2019-04-06T14:24:35.923Z,13.62
2019-04-06T14:27:12.883Z,13.65
2019-04-06T14:29:49.090Z,14.18
2019-04-06T14:32:22.274Z,14.95
2019-04-06T14:35:04.881Z,14.73
2019-04-06T14:37:35.313Z,13.80
2019-04-06T14:40:10.525Z,13.38
2019-04-06T14:42:44.274Z,14.33
2019-04-06T14:45:29.954Z,13.90
2019-04-06T14:48:03.850Z,14.30
2019-04-06T14:53:15.944Z,13.78
2019-04-06T14:55:57.938Z,13.32
2019-04-06T14:58:37.237Z,14.43
2019-04-06T15:01:23.109Z,14.52
2019-04-06T15:03:53.642Z,14.20
2019-04-06T15:06:24.070Z,15.17
2019-04-06T15:08:54.493Z,14.43
2019-04-06T15:11:33.978Z,14.87
2019-04-06T15:14:04.465Z,15.18
2019-04-06T15:16:40.671Z,15.08
2019-04-06T15:19:23.266Z,15.35
2019-04-06T15:21:56.235Z,14.80
2019-04-06T15:24:32.476Z,14.65
2019-04-06T15:27:18.982Z,15.60
2019-04-06T15:29:58.522Z,16.35
2019-04-06T15:32:45.686Z,14.70
2019-04-06T15:35:16.439Z,14.40
2019-04-06T15:37:56.109Z,14.68
2019-04-06T15:40:26.543Z,14.95
2019-04-06T15:43:00.451Z,14.35
2019-04-06T15:45:33.926Z,14.95
2019-04-06T15:48:20.654Z,14.75
2019-04-06T15:50:59.794Z,14.33
2019-04-06T15:53:46.446Z,15.60
2019-04-06T15:56:20.435Z,15.07
2019-04-06T15:58:56.594Z,15.38
2019-04-06T16:01:43.447Z,15.38
2019-04-06T16:04:30.523Z,16.02
2019-04-06T16:07:01.357Z,16.42
2019-04-06T16:09:48.578Z,15.68
2019-04-06T16:12:22.042Z,15.32
2019-04-06T16:14:58.430Z,15.45
2019-04-06T16:17:37.748Z,15.75
2019-04-06T16:20:25.102Z,16.55
2019-04-06T16:23:01.340Z,16.82
2019-04-06T16:25:49.958Z,17.05
2019-04-06T16:28:20.690Z,16.23
2019-04-06T16:30:54.091Z,16.48
2019-04-06T16:33:40.723Z,16.60
2019-04-06T16:36:27.542Z,15.50
2019-04-06T16:39:01.165Z,16.57
2019-04-06T16:41:37.913Z,16.73
2019-04-06T16:44:20.590Z,15.63
2019-04-06T16:46:51.092Z,15.80
2019-04-06T16:49:40.172Z,15.68
2019-04-06T16:52:10.598Z,15.32
2019-04-06T16:54:41.201Z,14.98
2019-04-06T16:57:11.733Z,15.68
2019-04-06T17:00:00.084Z,15.13
2019-04-06T17:02:30.575Z,14.98
2019-04-06T17:05:03.997Z,14.95
2019-04-06T17:10:20.327Z,14.58
2019-04-06T17:13:02.815Z,14.70
2019-04-06T17:15:48.286Z,14.33
2019-04-06T17:18:18.824Z,14.63
2019-04-06T17:20:49.368Z,14.10
2019-04-06T17:23:28.808Z,14.30
2019-04-06T17:26:15.689Z,15.20
2019-04-06T17:28:55.358Z,14.65
2019-04-06T17:31:37.915Z,15.07
2019-04-06T17:34:23.584Z,15.88
2019-04-06T17:36:54.026Z,16.17
2019-04-06T17:39:42.728Z,15.50
2019-04-06T17:42:29.344Z,15.90
2019-04-06T17:44:59.835Z,15.75
2019-04-06T17:47:42.981Z,16.40
2019-04-06T17:50:29.618Z,16.07
2019-04-06T17:53:16.080Z,15.90
2019-04-06T17:56:03.393Z,16.10
2019-04-06T17:58:45.762Z,16.02
2019-04-06T18:01:25.285Z,17.30
2019-04-06T18:04:13.794Z,16.27
2019-04-06T18:07:00.726Z,17.27
2019-04-06T18:09:31.602Z,16.67
2019-04-06T18:12:10.124Z,16.82
2019-04-06T18:14:38.987Z,17.87
2019-04-06T18:17:08.175Z,20.80
2019-04-06T18:19:37.089Z,27.77
2019-04-06T18:22:06.546Z,28.25
2019-04-06T18:24:35.430Z,23.10
2019-04-06T18:27:04.231Z,23.95
2019-04-06T18:29:33.074Z,24.10
2019-04-06T18:32:05.933Z,21.12
2019-04-06T18:34:34.734Z,21.23
2019-04-06T18:37:16.983Z,22.35
2019-04-06T18:39:47.409Z,19.73
2019-04-06T18:42:16.361Z,19.75
2019-04-06T18:44:45.437Z,19.90
2019-04-06T18:47:14.417Z,21.75
2019-04-06T18:49:43.204Z,21.87
2019-04-06T18:52:12.268Z,21.45
2019-04-06T18:54:41.479Z,21.48
2019-04-06T18:57:10.592Z,23.57
2019-04-06T18:59:40.291Z,23.65
2019-04-06T19:02:09.690Z,22.62
2019-04-06T19:04:40.628Z,24.63
2019-04-06T19:07:09.983Z,25.55
2019-04-06T19:09:38.820Z,22.80
2019-04-06T19:12:07.787Z,23.25
2019-04-06T19:14:37.173Z,23.55
2019-04-06T19:17:06.295Z,22.58
2019-04-06T19:19:35.240Z,24.37
2019-04-06T19:22:04.143Z,23.95
2019-04-06T19:24:32.902Z,25.02
2019-04-06T19:27:01.832Z,25.20
2019-04-06T19:29:30.640Z,23.10
2019-04-06T19:31:59.433Z,23.55
2019-04-06T19:34:28.495Z,23.52
2019-04-06T19:36:57.337Z,24.02
2019-04-06T19:39:26.360Z,22.17
2019-04-06T19:41:55.342Z,22.65
2019-04-06T19:44:24.159Z,25.45
2019-04-06T19:46:52.991Z,24.65
2019-04-06T19:49:21.830Z,25.52
2019-04-06T19:51:50.616Z,24.27
2019-04-06T19:54:19.783Z,24.25
2019-04-06T19:56:48.647Z,24.92
2019-04-06T19:59:17.522Z,27.42
2019-04-06T20:01:46.310Z,25.97
2019-04-06T20:04:15.358Z,25.40
2019-04-06T20:06:44.116Z,25.80
2019-04-06T20:09:13.416Z,26.95
2019-04-06T20:11:42.377Z,24.05
2019-04-06T20:14:11.148Z,24.07
2019-04-06T20:16:39.972Z,38.75
2019-04-06T20:21:46.439Z,26.60
2019-04-06T20:24:15.327Z,26.90
2019-04-06T20:26:44.149Z,26.80
2019-04-06T20:29:12.940Z,25.60
2019-04-06T20:31:42.137Z,24.85
2019-04-06T20:34:11.227Z,23.98
2019-04-06T20:36:40.014Z,26.12
2019-04-06T20:39:10.052Z,25.30
2019-04-06T20:41:39.195Z,25.37
2019-04-06T20:44:08.000Z,25.65
2019-04-06T20:46:36.838Z,28.83
2019-04-06T20:49:05.659Z,29.75
2019-04-06T20:51:34.504Z,29.70
2019-04-06T20:54:04.248Z,31.27
2019-04-06T20:56:33.156Z,30.12
2019-04-06T20:59:01.924Z,29.63
2019-04-06T21:01:31.116Z,29.92
2019-04-06T21:04:02.853Z,30.97
2019-04-06T21:06:30.390Z,30.90
2019-04-06T21:08:59.276Z,30.68
2019-04-06T21:11:28.166Z,29.63
2019-04-06T21:13:57.053Z,30.02
2019-04-06T21:16:26.435Z,29.60
2019-04-06T21:18:55.743Z,28.87
2019-04-06T21:21:24.855Z,28.90
2019-04-06T21:23:54.186Z,28.23
2019-04-06T21:29:15.954Z,29.52
2019-04-06T21:31:44.736Z,28.42
2019-04-06T21:34:15.987Z,29.12
2019-04-06T21:36:44.055Z,27.93
2019-04-06T21:39:13.328Z,29.32
2019-04-06T21:41:42.119Z,29.27
2019-04-06T21:44:11.219Z,29.82
2019-04-06T21:46:40.655Z,28.40
2019-04-06T21:49:09.450Z,28.77
2019-04-06T21:51:38.236Z,27.37
2019-04-06T21:54:07.851Z,27.73
2019-04-06T21:56:37.460Z,27.82
2019-04-06T21:59:06.542Z,29.25
2019-04-06T22:01:35.903Z,28.73
2019-04-06T22:04:05.297Z,29.75
2019-04-06T22:06:34.870Z,32.60
2019-04-06T22:09:08.208Z,32.73
2019-04-06T22:11:37.207Z,32.88
2019-04-06T22:14:06.092Z,31.33
2019-04-06T22:16:34.871Z,31.42
2019-04-06T22:19:03.663Z,30.82
2019-04-06T22:21:32.442Z,28.38
2019-04-06T22:24:01.263Z,27.73
2019-04-06T22:26:30.228Z,29.18
2019-04-06T22:28:59.073Z,30.08
2019-04-06T22:31:27.865Z,29.35
2019-04-06T22:33:56.853Z,28.70
2019-04-06T22:36:26.073Z,27.62
2019-04-06T22:38:55.127Z,28.92
2019-04-06T22:41:24.118Z,32.55
2019-04-06T22:43:53.255Z,32.53
2019-04-06T22:46:22.047Z,35.50
2019-04-06T22:48:50.832Z,37.95
2019-04-06T22:51:19.644Z,36.00
2019-04-06T22:53:49.204Z,40.00
2019-04-06T22:56:18.432Z,37.60
2019-04-06T22:58:47.272Z,38.55
2019-04-06T23:01:18.551Z,37.38
2019-04-06T23:03:58.525Z,37.83
2019-04-06T23:06:32.289Z,39.45
2019-04-06T23:09:01.120Z,35.00
2019-04-06T23:11:29.924Z,35.98
2019-04-06T23:13:58.766Z,36.68
2019-04-06T23:16:36.080Z,37.95
2019-04-06T23:19:05.173Z,35.40
2019-04-06T23:21:33.959Z,34.70
2019-04-06T23:24:04.500Z,37.33
2019-04-06T23:26:33.226Z,38.17
2019-04-06T23:29:02.035Z,39.73
2019-04-06T23:31:30.886Z,37.67
2019-04-06T23:33:59.664Z,35.65
2019-04-06T23:36:28.446Z,36.03
2019-04-06T23:38:57.483Z,33.63
2019-04-06T23:41:26.711Z,33.50
2019-04-06T23:43:56.336Z,34.25
2019-04-06T23:46:25.746Z,32.48
2019-04-06T23:48:54.588Z,34.85
2019-04-06T23:51:23.941Z,33.53
2019-04-06T23:53:53.500Z,33.92
2019-04-06T23:56:22.568Z,34.27
2019-04-06T23:58:51.424Z,34.70
